Kendall Alyse — WDE4829 — position and weather

sailwx.info

Track history (hours):
 
Tides and Currents Weather Stations Pressure Air Temp Water Temp Dewpoint Dewpoint Depression Visibility Wind Speed Wind Dir Waves Ship Positions

Kendall Alyse

Owner: The Tug Kendall Alyse, L.L.C., Sugar Land, TX. More information available from US FCC via Universal Licensing System and Coast Guard Vessel Documentation Center.

Last reported at 2017-Nov-17 15:43 UTC. Time now 2017-Nov-17 17:48 UTC.
Position N 29°46' W 095°05'.

Length 20 m.

MMSI: 357358340.

Date/timePositionNaut miles runAvg speedWind from/ knotsBaromVisibWave heightAir tempDewpointWater temp
2017-Nov-17 15:43N 29°46' W 095°05'1 1.7
2017-Nov-17 14:52N 29°47' W 095°04'0 0.0
2017-Nov-17 14:25N 29°47' W 095°04'2 3.7
2017-Nov-17 13:56N 29°46' W 095°05'3 6.6
2017-Nov-17 13:27N 29°44' W 095°08'3 6.5
2017-Nov-17 13:00N 29°45' W 095°11'2 5.1
2017-Nov-17 12:30N 29°44' W 095°14'0 0.0
2017-Nov-17 12:00N 29°44' W 095°14'0 0.0
2017-Nov-17 11:30N 29°44' W 095°14'0 0.0
2017-Nov-17 11:00N 29°44' W 095°14'0 0.1
2017-Nov-17 10:30N 29°44' W 095°14'1 2.8
2017-Nov-17 10:00N 29°44' W 095°12'2 3.9
2017-Nov-17 09:30N 29°45' W 095°10'2 3.9
2017-Nov-17 08:59N 29°44' W 095°08'1 2.4
2017-Nov-17 08:30N 29°44' W 095°07'2 0.3
2017-Nov-17 02:38N 29°46' W 095°06'1 4.3
2017-Nov-17 02:27N 29°46' W 095°05'0 0.1
2017-Nov-17 00:40N 29°46' W 095°05'0 0.0
2017-Nov-16 21:18N 29°46' W 095°05'1 3.2
2017-Nov-16 20:57N 29°45' W 095°04'3 5.5
2017-Nov-16 20:29N 29°44' W 095°02'2 5.0
2017-Nov-16 20:00N 29°42' W 095°00'3 5.6
2017-Nov-16 19:30N 29°40' W 094°58'3 5.6
2017-Nov-16 19:00N 29°37' W 094°58'3 5.8
2017-Nov-16 18:30N 29°37' W 095°01'0 0.9
2017-Nov-16 18:00N 29°37' W 095°01'0 0.0
2017-Nov-16 17:30N 29°37' W 095°01'0 0.0
2017-Nov-16 17:00N 29°37' W 095°01'0 0.1
2017-Nov-16 16:30N 29°37' W 095°02'0 0.0
2017-Nov-16 16:00N 29°37' W 095°02'0 0.0
2017-Nov-16 15:30N 29°37' W 095°02'0 0.0
2017-Nov-16 15:00N 29°37' W 095°02'0 0.0
2017-Nov-16 14:30N 29°37' W 095°02'0 0.0
2017-Nov-16 14:00N 29°37' W 095°02'0 0.0
2017-Nov-16 13:30N 29°37' W 095°02'0 0.0
2017-Nov-16 13:00N 29°37' W 095°02'0 0.0
2017-Nov-16 12:30N 29°37' W 095°02'0 0.0
2017-Nov-16 12:00N 29°37' W 095°02'0 0.0
2017-Nov-16 11:31N 29°37' W 095°02'0 0.0
2017-Nov-16 11:00N 29°37' W 095°02'0 0.0
2017-Nov-16 10:30N 29°37' W 095°02'0 0.0
2017-Nov-16 10:00N 29°37' W 095°02'0 0.0
2017-Nov-16 09:30N 29°37' W 095°02'0 0.0
2017-Nov-16 09:00N 29°37' W 095°02'0 0.0
2017-Nov-16 08:31N 29°37' W 095°02'0 0.0
2017-Nov-16 08:00N 29°37' W 095°02'0 0.0
2017-Nov-16 07:30N 29°37' W 095°02'0 0.0
2017-Nov-16 07:00N 29°37' W 095°02'0 0.0
2017-Nov-16 06:30N 29°37' W 095°02'0 0.0
2017-Nov-16 06:00N 29°37' W 095°02'0 0.0
2017-Nov-16 05:30N 29°37' W 095°02'0 0.1
2017-Nov-16 05:01N 29°37' W 095°01'0 0.0
2017-Nov-16 04:30N 29°37' W 095°01'0 0.5
2017-Nov-16 04:00N 29°37' W 095°01'2 3.8
2017-Nov-16 03:30N 29°37' W 094°59'2 3.0
2017-Nov-16 03:00N 29°38' W 094°58'3 5.8
2017-Nov-16 02:30N 29°41' W 094°59'4 5.2
2017-Nov-16 01:48N 29°44' W 095°01'2 5.5
2017-Nov-16 01:28N 29°44' W 095°03'3 0.5
2017-Nov-15 19:56N 29°47' W 095°04'2 5.0
2017-Nov-15 19:30N 29°45' W 095°04'3 5.1
2017-Nov-15 19:00N 29°44' W 095°01'3 5.5
2017-Nov-15 18:30N 29°41' W 094°59'2 4.3
2017-Nov-15 18:00N 29°41' W 094°57'1 3.0
2017-Nov-15 17:30N 29°42' W 094°55'1 1.6
2017-Nov-15 16:49N 29°42' W 094°56'0 0.1
2017-Nov-15 12:48N 29°43' W 094°56'0 0.4
2017-Nov-15 12:30N 29°43' W 094°56'1 2.6
2017-Nov-15 12:00N 29°42' W 094°55'2 3.2
2017-Nov-15 11:29N 29°40' W 094°56'2 3.6
2017-Nov-15 11:00N 29°41' W 094°58'1 2.4
2017-Nov-15 10:30N 29°41' W 094°59'3 5.7
2017-Nov-15 09:59N 29°44' W 095°01'4 4.2
2017-Nov-15 08:58N 29°47' W 095°04'0 0.8
2017-Nov-15 08:30N 29°47' W 095°05'1 2.5
2017-Nov-15 07:58N 29°46' W 095°06'0 0.0
2017-Nov-15 05:47N 29°46' W 095°06'1 0.2
2017-Nov-15 02:06N 29°46' W 095°05'0 0.3
2017-Nov-15 01:03N 29°46' W 095°05'1 3.2
2017-Nov-15 00:53N 29°45' W 095°06'1 0.1
2017-Nov-14 18:09N 29°46' W 095°06'1 0.1
2017-Nov-14 12:22N 29°46' W 095°06'1 0.6
2017-Nov-14 10:42N 29°45' W 095°06'2 1.9
2017-Nov-14 09:47N 29°47' W 095°04'1 4.3
2017-Nov-14 09:27N 29°46' W 095°06'0 0.1
2017-Nov-14 00:52N 29°46' W 095°06'0 0.0
2017-Nov-12 20:38N 29°46' W 095°06'1 4.0
2017-Nov-12 20:28N 29°46' W 095°05'1 2.2
2017-Nov-12 19:52N 29°47' W 095°04'3 5.5
2017-Nov-12 19:24N 29°45' W 095°06'2 5.7
2017-Nov-12 19:00N 29°44' W 095°09'3 5.5
2017-Nov-12 18:30N 29°45' W 095°12'2 3.7
2017-Nov-12 18:00N 29°44' W 095°14'1 2.4
2017-Nov-12 17:27N 29°44' W 095°12'2 4.6
2017-Nov-12 17:00N 29°45' W 095°10'4 0.9
2017-Nov-12 12:58N 29°46' W 095°06'2 1.0
2017-Nov-12 11:24N 29°45' W 095°06'1 1.5
2017-Nov-12 10:59N 29°45' W 095°06'1 2.0
2017-Nov-12 10:29N 29°46' W 095°07'1 2.1
2017-Nov-12 10:00N 29°45' W 095°06'1 0.3
2017-Nov-12 06:13N 29°46' W 095°06'1 2.6
2017-Nov-12 06:00N 29°46' W 095°06'2 3.7
2017-Nov-12 05:26N 29°47' W 095°04'3 5.9
2017-Nov-12 05:01N 29°45' W 095°06'3 5.4
2017-Nov-12 04:31N 29°44' W 095°08'3 5.9
2017-Nov-12 04:00N 29°45' W 095°12'3 5.7
2017-Nov-12 03:30N 29°43' W 095°15'2 4.9
2017-Nov-12 03:00N 29°45' W 095°17'0 0.1
2017-Nov-12 02:25N 29°45' W 095°17'1 3.5
2017-Nov-12 02:00N 29°44' W 095°16'2 3.8
2017-Nov-12 01:30N 29°44' W 095°14'0 0.0
2017-Nov-12 00:57N 29°44' W 095°14'0 0.3
2017-Nov-12 00:30N 29°43' W 095°14'0 0.0
2017-Nov-12 00:00N 29°43' W 095°14'0 0.3
2017-Nov-11 23:30N 29°44' W 095°13'1 1.2
2017-Nov-11 23:00N 29°44' W 095°13'2 3.6
2017-Nov-11 22:18N 29°45' W 095°10'1 4.0
2017-Nov-11 22:00N 29°44' W 095°09'2 3.9
2017-Nov-11 21:29N 29°44' W 095°07'2 0.2
2017-Nov-11 13:26N 29°46' W 095°06'1 1.9
2017-Nov-11 12:49N 29°46' W 095°05'3 6.5
2017-Nov-11 12:25N 29°44' W 095°07'3 6.1
2017-Nov-11 11:59N 29°45' W 095°10'2 5.0
2017-Nov-11 11:30N 29°44' W 095°13'1 1.6
2017-Nov-11 11:00N 29°44' W 095°13'0 0.1
2017-Nov-11 10:30N 29°44' W 095°13'0 0.0
2017-Nov-11 10:00N 29°44' W 095°13'0 0.0
2017-Nov-11 09:30N 29°44' W 095°13'0 0.0
2017-Nov-11 09:00N 29°44' W 095°13'0 0.0
2017-Nov-11 08:30N 29°44' W 095°13'0 0.0
2017-Nov-11 08:00N 29°44' W 095°13'0 0.0
2017-Nov-11 07:28N 29°44' W 095°13'0 0.0
2017-Nov-11 07:00N 29°44' W 095°13'0 0.0
2017-Nov-11 06:30N 29°44' W 095°13'0 0.0
2017-Nov-11 05:46N 29°44' W 095°13'0 0.0
2017-Nov-11 05:28N 29°44' W 095°13'0 0.0
2017-Nov-11 05:00N 29°44' W 095°13'0 0.0
2017-Nov-11 04:30N 29°44' W 095°13'0 0.0
2017-Nov-11 03:56N 29°44' W 095°13'0 0.0
2017-Nov-11 03:30N 29°44' W 095°13'0 0.0
2017-Nov-11 03:00N 29°44' W 095°13'0 0.0
2017-Nov-11 02:25N 29°44' W 095°13'0 0.0
2017-Nov-11 01:58N 29°44' W 095°13'0 0.0
2017-Nov-11 01:28N 29°44' W 095°13'0 0.0
2017-Nov-11 01:00N 29°44' W 095°13'0 0.0
2017-Nov-11 00:21N 29°44' W 095°13'0 0.0
2017-Nov-11 00:00N 29°44' W 095°13'0 0.0
2017-Nov-10 23:22N 29°44' W 095°13'0 0.0
2017-Nov-10 23:00N 29°44' W 095°13'0 0.0
2017-Nov-10 22:25N 29°44' W 095°13'0 0.0
2017-Nov-10 22:00N 29°44' W 095°13'0 0.0
2017-Nov-10 21:30N 29°44' W 095°13'0 0.2
2017-Nov-10 21:00N 29°44' W 095°13'0 0.0
2017-Nov-10 20:30N 29°44' W 095°13'2 2.9
2017-Nov-10 19:56N 29°44' W 095°15'0 1.0
2017-Nov-10 19:29N 29°44' W 095°16'4 3.7
2017-Nov-10 18:26N 29°45' W 095°11'2 5.2
2017-Nov-10 17:59N 29°44' W 095°09'5 2.2
2017-Nov-10 15:28N 29°47' W 095°04'2 0.5
2017-Nov-10 10:55N 29°46' W 095°06'1 1.9
2017-Nov-10 10:21N 29°46' W 095°05'2 6.6
2017-Nov-10 09:59N 29°44' W 095°07'3 6.3
2017-Nov-10 09:29N 29°45' W 095°10'1 2.5
2017-Nov-10 09:00N 29°45' W 095°12'2 3.6
2017-Nov-10 08:30N 29°45' W 095°10'3 5.4
2017-Nov-10 08:01N 29°44' W 095°07'4 5.5
2017-Nov-10 07:22N 29°47' W 095°04'1 0.8
2017-Nov-10 05:59N 29°46' W 095°05'3 5.5
2017-Nov-10 05:29N 29°44' W 095°07'3 6.1
2017-Nov-10 05:00N 29°45' W 095°10'3 6.3
2017-Nov-10 04:31N 29°44' W 095°14'3 5.3
2017-Nov-10 04:01N 29°44' W 095°17'1 1.4
2017-Nov-10 03:28N 29°45' W 095°17'0 0.0
2017-Nov-10 02:54N 29°45' W 095°17'0 0.0
2017-Nov-10 02:28N 29°45' W 095°17'0 0.0
2017-Nov-10 02:00N 29°45' W 095°17'0 0.0
2017-Nov-10 01:21N 29°45' W 095°17'0 0.0
2017-Nov-09 22:03N 29°45' W 095°17'0 0.0
2017-Nov-09 21:44N 29°45' W 095°17'1 3.4
2017-Nov-09 21:29N 29°44' W 095°17'2 3.9
2017-Nov-09 20:59N 29°43' W 095°14'3 5.1
2017-Nov-09 20:27N 29°45' W 095°12'2 4.1
2017-Nov-09 19:58N 29°44' W 095°09'2 5.2
2017-Nov-09 19:31N 29°44' W 095°07'2 0.1
2017-Nov-09 03:23N 29°46' W 095°06'1 0.8
2017-Nov-09 01:27N 29°47' W 095°05'0 0.2
2017-Nov-09 00:58N 29°47' W 095°04'2 0.2
2017-Nov-08 14:22N 29°46' W 095°06'1 0.1
2017-Nov-08 07:27N 29°46' W 095°05'2 3.2
2017-Nov-08 06:43N 29°47' W 095°04'3 0.6
2017-Nov-08 00:36N 29°45' W 095°06'2 6.4
2017-Nov-08 00:21N 29°44' W 095°08'1 3.8
2017-Nov-08 00:00N 29°44' W 095°09'0 0.0
2017-Nov-07 23:30N 29°44' W 095°09'0 0.0
2017-Nov-07 22:52N 29°44' W 095°09'0 0.0
2017-Nov-07 22:18N 29°44' W 095°09'0 0.0
2017-Nov-07 22:00N 29°44' W 095°09'0 0.0
2017-Nov-07 19:35N 29°44' W 095°09'0 0.0
2017-Nov-07 19:26N 29°44' W 095°09'0 0.0
2017-Nov-07 19:00N 29°44' W 095°09'2 2.9
2017-Nov-07 18:28N 29°44' W 095°08'  
Track history (hours):
 
Tides and Currents Weather Stations Pressure Air Temp Water Temp Dewpoint Dewpoint Depression Visibility Wind Speed Wind Dir Waves Ship Positions

Kendall Alyse

Owner: The Tug Kendall Alyse, L.L.C., Sugar Land, TX. More information available from US FCC via Universal Licensing System and Coast Guard Vessel Documentation Center.

Last reported at 2017-Nov-17 15:43 UTC. Time now 2017-Nov-17 17:48 UTC.
Position N 29°46' W 095°05'.

Length 20 m.

MMSI: 357358340.

Date/timePositionNaut miles runAvg speedWind from/ knotsBaromVisibWave heightAir tempDewpointWater temp
2017-Nov-17 15:43N 29°46' W 095°05'1 1.7
2017-Nov-17 14:52N 29°47' W 095°04'0 0.0
2017-Nov-17 14:25N 29°47' W 095°04'2 3.7
2017-Nov-17 13:56N 29°46' W 095°05'3 6.6
2017-Nov-17 13:27N 29°44' W 095°08'3 6.5
2017-Nov-17 13:00N 29°45' W 095°11'2 5.1
2017-Nov-17 12:30N 29°44' W 095°14'0 0.0
2017-Nov-17 12:00N 29°44' W 095°14'0 0.0
2017-Nov-17 11:30N 29°44' W 095°14'0 0.0
2017-Nov-17 11:00N 29°44' W 095°14'0 0.1
2017-Nov-17 10:30N 29°44' W 095°14'1 2.8
2017-Nov-17 10:00N 29°44' W 095°12'2 3.9
2017-Nov-17 09:30N 29°45' W 095°10'2 3.9
2017-Nov-17 08:59N 29°44' W 095°08'1 2.4
2017-Nov-17 08:30N 29°44' W 095°07'2 0.3
2017-Nov-17 02:38N 29°46' W 095°06'1 4.3
2017-Nov-17 02:27N 29°46' W 095°05'0 0.1
2017-Nov-17 00:40N 29°46' W 095°05'0 0.0
2017-Nov-16 21:18N 29°46' W 095°05'1 3.2
2017-Nov-16 20:57N 29°45' W 095°04'3 5.5
2017-Nov-16 20:29N 29°44' W 095°02'2 5.0
2017-Nov-16 20:00N 29°42' W 095°00'3 5.6
2017-Nov-16 19:30N 29°40' W 094°58'3 5.6
2017-Nov-16 19:00N 29°37' W 094°58'3 5.8
2017-Nov-16 18:30N 29°37' W 095°01'0 0.9
2017-Nov-16 18:00N 29°37' W 095°01'0 0.0
2017-Nov-16 17:30N 29°37' W 095°01'0 0.0
2017-Nov-16 17:00N 29°37' W 095°01'0 0.1
2017-Nov-16 16:30N 29°37' W 095°02'0 0.0
2017-Nov-16 16:00N 29°37' W 095°02'0 0.0
2017-Nov-16 15:30N 29°37' W 095°02'0 0.0
2017-Nov-16 15:00N 29°37' W 095°02'0 0.0
2017-Nov-16 14:30N 29°37' W 095°02'0 0.0
2017-Nov-16 14:00N 29°37' W 095°02'0 0.0
2017-Nov-16 13:30N 29°37' W 095°02'0 0.0
2017-Nov-16 13:00N 29°37' W 095°02'0 0.0
2017-Nov-16 12:30N 29°37' W 095°02'0 0.0
2017-Nov-16 12:00N 29°37' W 095°02'0 0.0
2017-Nov-16 11:31N 29°37' W 095°02'0 0.0
2017-Nov-16 11:00N 29°37' W 095°02'0 0.0
2017-Nov-16 10:30N 29°37' W 095°02'0 0.0
2017-Nov-16 10:00N 29°37' W 095°02'0 0.0
2017-Nov-16 09:30N 29°37' W 095°02'0 0.0
2017-Nov-16 09:00N 29°37' W 095°02'0 0.0
2017-Nov-16 08:31N 29°37' W 095°02'0 0.0
2017-Nov-16 08:00N 29°37' W 095°02'0 0.0
2017-Nov-16 07:30N 29°37' W 095°02'0 0.0
2017-Nov-16 07:00N 29°37' W 095°02'0 0.0
2017-Nov-16 06:30N 29°37' W 095°02'0 0.0
2017-Nov-16 06:00N 29°37' W 095°02'0 0.0
2017-Nov-16 05:30N 29°37' W 095°02'0 0.1
2017-Nov-16 05:01N 29°37' W 095°01'0 0.0
2017-Nov-16 04:30N 29°37' W 095°01'0 0.5
2017-Nov-16 04:00N 29°37' W 095°01'2 3.8
2017-Nov-16 03:30N 29°37' W 094°59'2 3.0
2017-Nov-16 03:00N 29°38' W 094°58'3 5.8
2017-Nov-16 02:30N 29°41' W 094°59'4 5.2
2017-Nov-16 01:48N 29°44' W 095°01'2 5.5
2017-Nov-16 01:28N 29°44' W 095°03'3 0.5
2017-Nov-15 19:56N 29°47' W 095°04'2 5.0
2017-Nov-15 19:30N 29°45' W 095°04'3 5.1
2017-Nov-15 19:00N 29°44' W 095°01'3 5.5
2017-Nov-15 18:30N 29°41' W 094°59'2 4.3
2017-Nov-15 18:00N 29°41' W 094°57'1 3.0
2017-Nov-15 17:30N 29°42' W 094°55'1 1.6
2017-Nov-15 16:49N 29°42' W 094°56'0 0.1
2017-Nov-15 12:48N 29°43' W 094°56'0 0.4
2017-Nov-15 12:30N 29°43' W 094°56'1 2.6
2017-Nov-15 12:00N 29°42' W 094°55'2 3.2
2017-Nov-15 11:29N 29°40' W 094°56'2 3.6
2017-Nov-15 11:00N 29°41' W 094°58'1 2.4
2017-Nov-15 10:30N 29°41' W 094°59'3 5.7
2017-Nov-15 09:59N 29°44' W 095°01'4 4.2
2017-Nov-15 08:58N 29°47' W 095°04'0 0.8
2017-Nov-15 08:30N 29°47' W 095°05'1 2.5
2017-Nov-15 07:58N 29°46' W 095°06'0 0.0
2017-Nov-15 05:47N 29°46' W 095°06'1 0.2
2017-Nov-15 02:06N 29°46' W 095°05'0 0.3
2017-Nov-15 01:03N 29°46' W 095°05'1 3.2
2017-Nov-15 00:53N 29°45' W 095°06'1 0.1
2017-Nov-14 18:09N 29°46' W 095°06'1 0.1
2017-Nov-14 12:22N 29°46' W 095°06'1 0.6
2017-Nov-14 10:42N 29°45' W 095°06'2 1.9
2017-Nov-14 09:47N 29°47' W 095°04'1 4.3
2017-Nov-14 09:27N 29°46' W 095°06'0 0.1
2017-Nov-14 00:52N 29°46' W 095°06'0 0.0
2017-Nov-12 20:38N 29°46' W 095°06'1 4.0
2017-Nov-12 20:28N 29°46' W 095°05'1 2.2
2017-Nov-12 19:52N 29°47' W 095°04'3 5.5
2017-Nov-12 19:24N 29°45' W 095°06'2 5.7
2017-Nov-12 19:00N 29°44' W 095°09'3 5.5
2017-Nov-12 18:30N 29°45' W 095°12'2 3.7
2017-Nov-12 18:00N 29°44' W 095°14'1 2.4
2017-Nov-12 17:27N 29°44' W 095°12'2 4.6
2017-Nov-12 17:00N 29°45' W 095°10'4 0.9
2017-Nov-12 12:58N 29°46' W 095°06'2 1.0
2017-Nov-12 11:24N 29°45' W 095°06'1 1.5
2017-Nov-12 10:59N 29°45' W 095°06'1 2.0
2017-Nov-12 10:29N 29°46' W 095°07'1 2.1
2017-Nov-12 10:00N 29°45' W 095°06'1 0.3
2017-Nov-12 06:13N 29°46' W 095°06'1 2.6
2017-Nov-12 06:00N 29°46' W 095°06'2 3.7
2017-Nov-12 05:26N 29°47' W 095°04'3 5.9
2017-Nov-12 05:01N 29°45' W 095°06'3 5.4
2017-Nov-12 04:31N 29°44' W 095°08'3 5.9
2017-Nov-12 04:00N 29°45' W 095°12'3 5.7
2017-Nov-12 03:30N 29°43' W 095°15'2 4.9
2017-Nov-12 03:00N 29°45' W 095°17'0 0.1
2017-Nov-12 02:25N 29°45' W 095°17'1 3.5
2017-Nov-12 02:00N 29°44' W 095°16'2 3.8
2017-Nov-12 01:30N 29°44' W 095°14'0 0.0
2017-Nov-12 00:57N 29°44' W 095°14'0 0.3
2017-Nov-12 00:30N 29°43' W 095°14'0 0.0
2017-Nov-12 00:00N 29°43' W 095°14'0 0.3
2017-Nov-11 23:30N 29°44' W 095°13'1 1.2
2017-Nov-11 23:00N 29°44' W 095°13'2 3.6
2017-Nov-11 22:18N 29°45' W 095°10'1 4.0
2017-Nov-11 22:00N 29°44' W 095°09'2 3.9
2017-Nov-11 21:29N 29°44' W 095°07'2 0.2
2017-Nov-11 13:26N 29°46' W 095°06'1 1.9
2017-Nov-11 12:49N 29°46' W 095°05'3 6.5
2017-Nov-11 12:25N 29°44' W 095°07'3 6.1
2017-Nov-11 11:59N 29°45' W 095°10'2 5.0
2017-Nov-11 11:30N 29°44' W 095°13'1 1.6
2017-Nov-11 11:00N 29°44' W 095°13'0 0.1
2017-Nov-11 10:30N 29°44' W 095°13'0 0.0
2017-Nov-11 10:00N 29°44' W 095°13'0 0.0
2017-Nov-11 09:30N 29°44' W 095°13'0 0.0
2017-Nov-11 09:00N 29°44' W 095°13'0 0.0
2017-Nov-11 08:30N 29°44' W 095°13'0 0.0
2017-Nov-11 08:00N 29°44' W 095°13'0 0.0
2017-Nov-11 07:28N 29°44' W 095°13'0 0.0
2017-Nov-11 07:00N 29°44' W 095°13'0 0.0
2017-Nov-11 06:30N 29°44' W 095°13'0 0.0
2017-Nov-11 05:46N 29°44' W 095°13'0 0.0
2017-Nov-11 05:28N 29°44' W 095°13'0 0.0
2017-Nov-11 05:00N 29°44' W 095°13'0 0.0
2017-Nov-11 04:30N 29°44' W 095°13'0 0.0
2017-Nov-11 03:56N 29°44' W 095°13'0 0.0
2017-Nov-11 03:30N 29°44' W 095°13'0 0.0
2017-Nov-11 03:00N 29°44' W 095°13'0 0.0
2017-Nov-11 02:25N 29°44' W 095°13'0 0.0
2017-Nov-11 01:58N 29°44' W 095°13'0 0.0
2017-Nov-11 01:28N 29°44' W 095°13'0 0.0
2017-Nov-11 01:00N 29°44' W 095°13'0 0.0
2017-Nov-11 00:21N 29°44' W 095°13'0 0.0
2017-Nov-11 00:00N 29°44' W 095°13'0 0.0
2017-Nov-10 23:22N 29°44' W 095°13'0 0.0
2017-Nov-10 23:00N 29°44' W 095°13'0 0.0
2017-Nov-10 22:25N 29°44' W 095°13'0 0.0
2017-Nov-10 22:00N 29°44' W 095°13'0 0.0
2017-Nov-10 21:30N 29°44' W 095°13'0 0.2
2017-Nov-10 21:00N 29°44' W 095°13'0 0.0
2017-Nov-10 20:30N 29°44' W 095°13'2 2.9
2017-Nov-10 19:56N 29°44' W 095°15'0 1.0
2017-Nov-10 19:29N 29°44' W 095°16'4 3.7
2017-Nov-10 18:26N 29°45' W 095°11'2 5.2
2017-Nov-10 17:59N 29°44' W 095°09'5 2.2
2017-Nov-10 15:28N 29°47' W 095°04'2 0.5
2017-Nov-10 10:55N 29°46' W 095°06'1 1.9
2017-Nov-10 10:21N 29°46' W 095°05'2 6.6
2017-Nov-10 09:59N 29°44' W 095°07'3 6.3
2017-Nov-10 09:29N 29°45' W 095°10'1 2.5
2017-Nov-10 09:00N 29°45' W 095°12'2 3.6
2017-Nov-10 08:30N 29°45' W 095°10'3 5.4
2017-Nov-10 08:01N 29°44' W 095°07'4 5.5
2017-Nov-10 07:22N 29°47' W 095°04'1 0.8
2017-Nov-10 05:59N 29°46' W 095°05'3 5.5
2017-Nov-10 05:29N 29°44' W 095°07'3 6.1
2017-Nov-10 05:00N 29°45' W 095°10'3 6.3
2017-Nov-10 04:31N 29°44' W 095°14'3 5.3
2017-Nov-10 04:01N 29°44' W 095°17'1 1.4
2017-Nov-10 03:28N 29°45' W 095°17'0 0.0
2017-Nov-10 02:54N 29°45' W 095°17'0 0.0
2017-Nov-10 02:28N 29°45' W 095°17'0 0.0
2017-Nov-10 02:00N 29°45' W 095°17'0 0.0
2017-Nov-10 01:21N 29°45' W 095°17'0 0.0
2017-Nov-09 22:03N 29°45' W 095°17'0 0.0
2017-Nov-09 21:44N 29°45' W 095°17'1 3.4
2017-Nov-09 21:29N 29°44' W 095°17'2 3.9
2017-Nov-09 20:59N 29°43' W 095°14'3 5.1
2017-Nov-09 20:27N 29°45' W 095°12'2 4.1
2017-Nov-09 19:58N 29°44' W 095°09'2 5.2
2017-Nov-09 19:31N 29°44' W 095°07'2 0.1
2017-Nov-09 03:23N 29°46' W 095°06'1 0.8
2017-Nov-09 01:27N 29°47' W 095°05'0 0.2
2017-Nov-09 00:58N 29°47' W 095°04'2 0.2
2017-Nov-08 14:22N 29°46' W 095°06'1 0.1
2017-Nov-08 07:27N 29°46' W 095°05'2 3.2
2017-Nov-08 06:43N 29°47' W 095°04'3 0.6
2017-Nov-08 00:36N 29°45' W 095°06'2 6.4
2017-Nov-08 00:21N 29°44' W 095°08'1 3.8
2017-Nov-08 00:00N 29°44' W 095°09'0 0.0
2017-Nov-07 23:30N 29°44' W 095°09'0 0.0
2017-Nov-07 22:52N 29°44' W 095°09'0 0.0
2017-Nov-07 22:18N 29°44' W 095°09'0 0.0
2017-Nov-07 22:00N 29°44' W 095°09'0 0.0
2017-Nov-07 19:35N 29°44' W 095°09'0 0.0
2017-Nov-07 19:26N 29°44' W 095°09'0 0.0
2017-Nov-07 19:00N 29°44' W 095°09'2 2.9
2017-Nov-07 18:28N 29°44' W 095°08'  

Dump ship's entire track history